Portada
METAR-TAF:

METAR-TAF

Aeroports :

Tindouf, Algèria

latitud: 27-40N, longitud: 008-08W, altitud: 431 m

Observació

L'informe es va fer fa 39 minuts, a les 21:00 UTC
Vent 10 kt del Oest
Temperatura 21°C
Humitat 33%
Pressió 1012 hPa
Visibilitat 10 km o més
sense núvols per sota de 1500 mi sense presència de cumulonimbus.

METAR: DAOF 222100Z 27010KT CAVOK 21/04 Q1012

Hora: 22:39 (21:39 UTC)

Pronòstic

L'informe es va fer fa 1 hora i 39 minuts, a les 20:00 UTC
Pronòstic vàlid del 22 a les 21 UTC al 23 a les 06 UTC
Vent 15 kt del Oest
Visibilitat 10 km o més
sense núvols per sota de 1500 mi sense presència de cumulonimbus.

TAF: DAOF 222000Z 2221/2306 27015KT CAVOK

Observacions i pronòstics meteorològics de més de 4000 aeroports (METAR i TAF).

Les estacions disponibles són els punts grocs i vermells al mapa.

Posi el ratolí al punt desitjat per veure el nom de l'estació.

Feu clic per veure les observacions i els pronòstics meteorològics.

Per canviar el mapa: feu clic els botons verds amb una creu de color negre per apropar; al botó verd amb un guió per allunyar la imatge; o en les fletxes verdes per a mapes adjacents.


METAR-TAF: